Observation data for Jayton on 11/17/2019      Previous  Date       Current Mesonet Observations  Soil Data  Daily Summary Page  Observations in Plain Language
KJTS 170600Z 18005KT 08/04 A2997 RMK A01 T00810038  RH  076%=      5-min Rain = 0
KJTS 170605Z 18005KT 08/04 A2997 RMK A01 T00820038  RH  076%=      5-min Rain = 0
KJTS 170610Z 19004KT 08/04 A2997 RMK A01 T00830039  RH  076%=      5-min Rain = 0
KJTS 170615Z 19004KT 08/04 A2997 RMK A01 T00820038  RH  075%=      5-min Rain = 0
KJTS 170620Z 21003KT 08/04 A2997 RMK A01 T00820039  RH  076%=      5-min Rain = 0
KJTS 170625Z 24003KT 08/04 A2998 RMK A01 T00820038  RH  075%=      5-min Rain = 0
KJTS 170630Z 24004KT 08/04 A2998 RMK A01 T00800037  RH  076%=      5-min Rain = 0
KJTS 170635Z 23005KT 09/04 A2998 RMK A01 T00850039  RH  074%=      5-min Rain = 0
KJTS 170640Z 22005KT 09/04 A2998 RMK A01 T00870039  RH  073%=      5-min Rain = 0
KJTS 170645Z 21005KT 09/04 A2998 RMK A01 T00870039  RH  073%=      5-min Rain = 0
KJTS 170650Z 22005KT 08/04 A2998 RMK A01 T00840038  RH  074%=      5-min Rain = 0
KJTS 170655Z 21005KT 08/04 A2998 RMK A01 T00820038  RH  075%=      5-min Rain = 0
KJTS 170700Z 21005KT 08/04 A2998 RMK A01 T00830038  RH  075%=      5-min Rain = 0
KJTS 170705Z 19005KT 09/04 A2998 RMK A01 T00850039  RH  074%=      5-min Rain = 0
KJTS 170710Z 20005KT 09/04 A2997 RMK A01 T00860039  RH  074%=      5-min Rain = 0
KJTS 170715Z 20005KT 09/04 A2997 RMK A01 T00860038  RH  073%=      5-min Rain = 0
KJTS 170720Z 20006KT 08/04 A2997 RMK A01 T00840038  RH  074%=      5-min Rain = 0
KJTS 170725Z 21005KT 08/04 A2998 RMK A01 T00760035  RH  076%=      5-min Rain = 0
KJTS 170730Z 22006KT 08/04 A2998 RMK A01 T00750036  RH  078%=      5-min Rain = 0
KJTS 170735Z 22006KT 08/04 A2998 RMK A01 T00760037  RH  078%=      5-min Rain = 0
KJTS 170740Z 22006KT 08/04 A2998 RMK A01 T00750037  RH  078%=      5-min Rain = 0
KJTS 170745Z 22006KT 07/04 A2998 RMK A01 T00740036  RH  078%=      5-min Rain = 0
KJTS 170750Z 21007KT 07/04 A2997 RMK A01 T00710035  RH  079%=      5-min Rain = 0
KJTS 170755Z 21007KT 07/04 A2997 RMK A01 T00690035  RH  081%=      5-min Rain = 0
KJTS 170800Z 20007KT 07/04 A2997 RMK A01 T00710037  RH  080%=      5-min Rain = 0
KJTS 170805Z 20007KT 07/04 A2997 RMK A01 T00710038  RH  081%=      5-min Rain = 0
KJTS 170810Z 21008KT 07/04 A2996 RMK A01 T00710037  RH  080%=      5-min Rain = 0
KJTS 170815Z 21008KT 07/04 A2996 RMK A01 T00700036  RH  081%=      5-min Rain = 0
KJTS 170820Z 21008KT 07/04 A2996 RMK A01 T00700038  RH  082%=      5-min Rain = 0
KJTS 170825Z 21006KT 07/04 A2996 RMK A01 T00680037  RH  082%=      5-min Rain = 0
KJTS 170830Z 21006KT 07/04 A2996 RMK A01 T00690037  RH  082%=      5-min Rain = 0
KJTS 170835Z 21005KT 07/04 A2996 RMK A01 T00690037  RH  082%=      5-min Rain = 0
KJTS 170840Z 20005KT 07/04 A2996 RMK A01 T00680037  RH  082%=      5-min Rain = 0
KJTS 170845Z 21005KT 07/04 A2996 RMK A01 T00670036  RH  082%=      5-min Rain = 0
KJTS 170850Z 22005KT 07/04 A2996 RMK A01 T00650035  RH  083%=      5-min Rain = 0
KJTS 170855Z 22006KT 07/04 A2996 RMK A01 T00650035  RH  083%=      5-min Rain = 0
KJTS 170900Z 23006KT 06/04 A2996 RMK A01 T00640036  RH  084%=      5-min Rain = 0
KJTS 170905Z 23006KT 07/04 A2996 RMK A01 T00650036  RH  083%=      5-min Rain = 0
KJTS 170910Z 22006KT 07/04 A2996 RMK A01 T00650036  RH  083%=      5-min Rain = 0
KJTS 170915Z 22006KT 06/04 A2996 RMK A01 T00620035  RH  084%=      5-min Rain = 0
KJTS 170920Z 23005KT 06/04 A2996 RMK A01 T00630036  RH  084%=      5-min Rain = 0
KJTS 170925Z 23003KT 07/04 A2997 RMK A01 T00650036  RH  083%=      5-min Rain = 0
KJTS 170930Z 28003KT 06/03 A2997 RMK A01 T00640034  RH  083%=      5-min Rain = 0
KJTS 170935Z 26004KT 06/03 A2997 RMK A01 T00580033  RH  085%=      5-min Rain = 0
KJTS 170940Z 25005KT 06/04 A2997 RMK A01 T00620036  RH  085%=      5-min Rain = 0
KJTS 170945Z 24004KT 06/04 A2997 RMK A01 T00630035  RH  084%=      5-min Rain = 0
KJTS 170950Z 23005KT 06/03 A2997 RMK A01 T00620034  RH  084%=      5-min Rain = 0
KJTS 170955Z 22005KT 06/03 A2997 RMK A01 T00590033  RH  085%=      5-min Rain = 0
KJTS 171000Z 23005KT 06/03 A2997 RMK A01 T00560033  RH  086%=      5-min Rain = 0
KJTS 171005Z 23005KT 06/03 A2997 RMK A01 T00590034  RH  085%=      5-min Rain = 0
KJTS 171010Z 27004KT 06/03 A2998 RMK A01 T00570032  RH  085%=      5-min Rain = 0
KJTS 171015Z 30004KT 05/02 A2998 RMK A01 T00460024  RH  087%=      5-min Rain = 0
KJTS 171020Z 28002KT 04/02 A2998 RMK A01 T00380022  RH  090%=      5-min Rain = 0
KJTS 171025Z 27002KT 04/03 A2998 RMK A01 T00390026  RH  092%=      5-min Rain = 0
KJTS 171030Z 27002KT 04/03 A2998 RMK A01 T00410028  RH  093%=      5-min Rain = 0
KJTS 171035Z 23003KT 04/03 A2998 RMK A01 T00420028  RH  093%=      5-min Rain = 0
KJTS 171040Z 24003KT 05/03 A2998 RMK A01 T00450031  RH  093%=      5-min Rain = 0
KJTS 171045Z 29003KT 04/03 A2999 RMK A01 T00440029  RH  091%=      5-min Rain = 0
KJTS 171050Z 28003KT 04/02 A2999 RMK A01 T00390022  RH  090%=      5-min Rain = 0
KJTS 171055Z 27004KT 03/02 A2999 RMK A01 T00340019  RH  091%=      5-min Rain = 0
KJTS 171100Z 30005KT 03/02 A30 RMK A01 T00330021  RH  093%=      5-min Rain = 0
KJTS 171105Z 32006KT 03/02 A30 RMK A01 T00330021  RH  093%=      5-min Rain = 0
KJTS 171110Z 33008KT 03/02 A3001 RMK A01 T00300019  RH  094%=      5-min Rain = 0
KJTS 171115Z 32008KT 03/03 A3001 RMK A01 T00340025  RH  095%=      5-min Rain = 0
KJTS 171120Z 32007KT 04/03 A30 RMK A01 T00410031  RH  095%=      5-min Rain = 0
KJTS 171125Z 32008KT 05/03 A30 RMK A01 T00450032  RH  093%=      5-min Rain = 0
KJTS 171130Z 32009KT 05/03 A3001 RMK A01 T00470033  RH  092%=      5-min Rain = 0
KJTS 171135Z 32008KT 05/03 A3001 RMK A01 T00460032  RH  092%=      5-min Rain = 0
KJTS 171140Z 32006KT 05/04 A3001 RMK A01 T00510036  RH  092%=      5-min Rain = 0
KJTS 171145Z 32006KT 05/03 A3001 RMK A01 T00510033  RH  090%=      5-min Rain = 0
KJTS 171150Z 34008KT 05/04 A3002 RMK A01 T00510035  RH  091%=      5-min Rain = 0
KJTS 171155Z 35010KT 07/04 A3002 RMK A01 T00720044  RH  084%=      5-min Rain = 0
KJTS 171200Z 36012KT 08/04 A3002 RMK A01 T00790039  RH  077%=      5-min Rain = 0
KJTS 171205Z 00012G17KT 08/04 A3002 RMK A01 T00790036  RH  076%=      5-min Rain = 0
KJTS 171210Z 00012G17KT 08/03 A3002 RMK A01 T00770034  RH  075%=      5-min Rain = 0
KJTS 171215Z 01010KT 07/03 A3002 RMK A01 T00740033  RH  076%=      5-min Rain = 0
KJTS 171220Z 01011G16KT 07/03 A3002 RMK A01 T00730031  RH  076%=      5-min Rain = 0
KJTS 171225Z 01010G15KT 07/03 A3002 RMK A01 T00710029  RH  076%=      5-min Rain = 0
KJTS 171230Z 01011KT 07/03 A3002 RMK A01 T00680028  RH  077%=      5-min Rain = 0
KJTS 171235Z 00012KT 07/03 A3003 RMK A01 T00660027  RH  077%=      5-min Rain = 0
KJTS 171240Z 00014G19KT 07/03 A3003 RMK A01 T00690026  RH  076%=      5-min Rain = 0
KJTS 171245Z 01015G22KT 07/03 A3003 RMK A01 T00730025  RH  073%=      5-min Rain = 0
KJTS 171250Z 01014G20KT 08/03 A3003 RMK A01 T00770025  RH  071%=      5-min Rain = 0
KJTS 171255Z 01014G19KT 08/02 A3004 RMK A01 T00810023  RH  068%=      5-min Rain = 0
KJTS 171300Z 01016G22KT 08/02 A3004 RMK A01 T00830022  RH  066%=      5-min Rain = 0
KJTS 171305Z 01016G26KT 08/02 A3004 RMK A01 T00840021  RH  065%=      5-min Rain = 0
KJTS 171310Z 01015G21KT 09/02 A3005 RMK A01 T00850020  RH  065%=      5-min Rain = 0
KJTS 171315Z 01016G22KT 09/02 A3005 RMK A01 T00860020  RH  064%=      5-min Rain = 0
KJTS 171320Z 01016G24KT 09/02 A3005 RMK A01 T00890018  RH  062%=      5-min Rain = 0
KJTS 171325Z 01015G23KT 09/02 A3006 RMK A01 T00890018  RH  062%=      5-min Rain = 0
KJTS 171330Z 01016G22KT 09/02 A3006 RMK A01 T00900017  RH  061%=      5-min Rain = 0
KJTS 171335Z 01015G21KT 09/02 A3006 RMK A01 T00910016  RH  060%=      5-min Rain = 0
KJTS 171340Z 01016G22KT 09/02 A3007 RMK A01 T00920016  RH  060%=      5-min Rain = 0
KJTS 171345Z 01016G21KT 09/02 A3007 RMK A01 T00920015  RH  059%=      5-min Rain = 0
KJTS 171350Z 01017G24KT 09/02 A3007 RMK A01 T00940016  RH  059%=      5-min Rain = 0
KJTS 171355Z 01016G23KT 10/02 A3008 RMK A01 T00950016  RH  059%=      5-min Rain = 0
KJTS 171400Z 01018G25KT 10/02 A3008 RMK A01 T00960016  RH  058%=      5-min Rain = 0
KJTS 171405Z 01018G23KT 10/02 A3008 RMK A01 T00980017  RH  058%=      5-min Rain = 0
KJTS 171410Z 01018G27KT 10/02 A3008 RMK A01 T00990017  RH  058%=      5-min Rain = 0
KJTS 171415Z 01020G34KT 10/02 A3009 RMK A01 T01000017  RH  057%=      5-min Rain = 0
KJTS 171420Z 01020G26KT 10/02 A3009 RMK A01 T01010018  RH  057%=      5-min Rain = 0
KJTS 171425Z 01020G28KT 10/02 A3009 RMK A01 T01030018  RH  057%=      5-min Rain = 0
KJTS 171430Z 01019G28KT 10/02 A3009 RMK A01 T01040019  RH  057%=      5-min Rain = 0
KJTS 171435Z 01022G30KT 11/02 A3009 RMK A01 T01050019  RH  056%=      5-min Rain = 0
KJTS 171440Z 01022G29KT 11/02 A301 RMK A01 T01060019  RH  056%=      5-min Rain = 0
KJTS 171445Z 01021G29KT 11/02 A301 RMK A01 T01070020  RH  056%=      5-min Rain = 0
KJTS 171450Z 01020G29KT 11/02 A301 RMK A01 T01080021  RH  056%=      5-min Rain = 0
KJTS 171455Z 01020G33KT 11/02 A301 RMK A01 T01090021  RH  055%=      5-min Rain = 0
KJTS 171500Z 01019G27KT 11/02 A3011 RMK A01 T01110022  RH  055%=      5-min Rain = 0
KJTS 171505Z 01018G26KT 11/02 A3011 RMK A01 T01120023  RH  055%=      5-min Rain = 0
KJTS 171510Z 01019G31KT 11/02 A3011 RMK A01 T01130023  RH  055%=      5-min Rain = 0
KJTS 171515Z 02019G27KT 11/02 A3011 RMK A01 T01140023  RH  054%=      5-min Rain = 0
KJTS 171520Z 02020G30KT 12/02 A3011 RMK A01 T01150023  RH  054%=      5-min Rain = 0
KJTS 171525Z 01016G24KT 12/02 A3011 RMK A01 T01170024  RH  054%=      5-min Rain = 0
KJTS 171530Z 02016G25KT 12/02 A3012 RMK A01 T01190024  RH  053%=      5-min Rain = 0
KJTS 171535Z 02016G26KT 12/02 A3012 RMK A01 T01200024  RH  053%=      5-min Rain = 0
KJTS 171540Z 01017G24KT 12/03 A3012 RMK A01 T01220025  RH  052%=      5-min Rain = 0
KJTS 171545Z 01016G23KT 12/03 A3012 RMK A01 T01240026  RH  052%=      5-min Rain = 0
KJTS 171550Z 02015G26KT 13/03 A3012 RMK A01 T01250026  RH  052%=      5-min Rain = 0
KJTS 171555Z 01015G23KT 13/03 A3012 RMK A01 T01260027  RH  052%=      5-min Rain = 0
KJTS 171600Z 02014G24KT 13/03 A3012 RMK A01 T01290027  RH  051%=      5-min Rain = 0
KJTS 171605Z 01018G27KT 13/03 A3013 RMK A01 T01290026  RH  051%=      5-min Rain = 0
KJTS 171610Z 01017G25KT 13/03 A3013 RMK A01 T01290026  RH  051%=      5-min Rain = 0
KJTS 171615Z 02015G24KT 13/03 A3013 RMK A01 T01310027  RH  050%=      5-min Rain = 0
KJTS 171620Z 02013G22KT 13/03 A3013 RMK A01 T01320027  RH  050%=      5-min Rain = 0
KJTS 171625Z 01015G22KT 14/03 A3013 RMK A01 T01350028  RH  049%=      5-min Rain = 0
KJTS 171630Z 02015G21KT 13/03 A3013 RMK A01 T01330027  RH  049%=      5-min Rain = 0
KJTS 171635Z 02014G22KT 13/03 A3013 RMK A01 T01330027  RH  049%=      5-min Rain = 0
KJTS 171640Z 02015G24KT 14/03 A3014 RMK A01 T01360027  RH  049%=      5-min Rain = 0
KJTS 171645Z 02016G22KT 14/03 A3013 RMK A01 T01360027  RH  049%=      5-min Rain = 0
KJTS 171650Z 02014G21KT 14/03 A3013 RMK A01 T01380028  RH  048%=      5-min Rain = 0
KJTS 171655Z 02013G19KT 14/03 A3012 RMK A01 T01390029  RH  048%=      5-min Rain = 0
KJTS 171700Z 01016G21KT 14/03 A3013 RMK A01 T01410028  RH  047%=      5-min Rain = 0
KJTS 171705Z 01016G21KT 14/03 A3013 RMK A01 T01420028  RH  047%=      5-min Rain = 0
KJTS 171710Z 01014G21KT 14/03 A3013 RMK A01 T01440028  RH  046%=      5-min Rain = 0
KJTS 171715Z 01016KT 14/03 A3013 RMK A01 T01440027  RH  046%=      5-min Rain = 0
KJTS 171720Z 01013G18KT 15/03 A3012 RMK A01 T01470029  RH  046%=      5-min Rain = 0
KJTS 171725Z 01015G21KT 15/03 A3012 RMK A01 T01480028  RH  045%=      5-min Rain = 0
KJTS 171730Z 01012G17KT 15/03 A3012 RMK A01 T01490028  RH  045%=      5-min Rain = 0
KJTS 171735Z 02013KT 15/03 A3012 RMK A01 T01510028  RH  044%=      5-min Rain = 0
KJTS 171740Z 02011G17KT 15/03 A3012 RMK A01 T01510028  RH  044%=      5-min Rain = 0
KJTS 171745Z 03011G16KT 15/03 A3012 RMK A01 T01520027  RH  044%=      5-min Rain = 0
KJTS 171750Z 01010G16KT 15/03 A3012 RMK A01 T01530029  RH  044%=      5-min Rain = 0
KJTS 171755Z 01012G19KT 15/03 A3012 RMK A01 T01540029  RH  044%=      5-min Rain = 0
KJTS 171800Z 01015KT 16/03 A3012 RMK A01 T01560029  RH  043%=      5-min Rain = 0
KJTS 171805Z 00013KT 16/03 A3012 RMK A01 T01560028  RH  043%=      5-min Rain = 0
KJTS 171810Z 01012G20KT 16/03 A3011 RMK A01 T01580029  RH  043%=      5-min Rain = 0
KJTS 171815Z 00012G17KT 16/03 A3011 RMK A01 T01620029  RH  042%=      5-min Rain = 0
KJTS 171820Z 02011KT 16/03 A3011 RMK A01 T01610028  RH  041%=      5-min Rain = 0
KJTS 171825Z 36011KT 16/03 A3011 RMK A01 T01610028  RH  042%=      5-min Rain = 0
KJTS 171830Z 03011KT 16/03 A301 RMK A01 T01610026  RH  041%=      5-min Rain = 0
KJTS 171835Z 01010G18KT 16/03 A301 RMK A01 T01630028  RH  041%=      5-min Rain = 0
KJTS 171840Z 02010G15KT 16/03 A301 RMK A01 T01640027  RH  041%=      5-min Rain = 0
KJTS 171845Z 01011KT 17/03 A301 RMK A01 T01660027  RH  040%=      5-min Rain = 0
KJTS 171850Z 03009KT 17/03 A301 RMK A01 T01680027  RH  040%=      5-min Rain = 0
KJTS 171855Z 01010G16KT 17/03 A301 RMK A01 T01670026  RH  040%=      5-min Rain = 0
KJTS 171900Z 01011G16KT 17/03 A3009 RMK A01 T01710029  RH  039%=      5-min Rain = 0
KJTS 171905Z 01014G20KT 17/03 A3009 RMK A01 T01720027  RH  039%=      5-min Rain = 0
KJTS 171910Z 02012G20KT 17/03 A3009 RMK A01 T01700028  RH  039%=      5-min Rain = 0
KJTS 171915Z 00012G22KT 17/03 A3009 RMK A01 T01700028  RH  039%=      5-min Rain = 0
KJTS 171920Z 01012G19KT 17/03 A3009 RMK A01 T01740030  RH  039%=      5-min Rain = 0
KJTS 171925Z 01015KT 17/03 A3009 RMK A01 T01720029  RH  039%=      5-min Rain = 0
KJTS 171930Z 01012G17KT 17/03 A3009 RMK A01 T01700028  RH  039%=      5-min Rain = 0
KJTS 171935Z 01013G20KT 17/03 A3009 RMK A01 T01720029  RH  039%=      5-min Rain = 0
KJTS 171940Z 01012G17KT 18/03 A3009 RMK A01 T01750029  RH  038%=      5-min Rain = 0
KJTS 171945Z 01011G19KT 18/03 A3009 RMK A01 T01760031  RH  038%=      5-min Rain = 0
KJTS 171950Z 00012G19KT 17/03 A3009 RMK A01 T01740029  RH  038%=      5-min Rain = 0
KJTS 171955Z 01011G17KT 18/03 A3009 RMK A01 T01750030  RH  039%=      5-min Rain = 0
KJTS 172000Z 01012G19KT 17/03 A3009 RMK A01 T01740030  RH  039%=      5-min Rain = 0
KJTS 172005Z 01012G17KT 18/03 A3009 RMK A01 T01750030  RH  039%=      5-min Rain = 0
KJTS 172010Z 01013G20KT 18/03 A3009 RMK A01 T01750030  RH  039%=      5-min Rain = 0
KJTS 172015Z 02010G18KT 17/03 A3008 RMK A01 T01730030  RH  039%=      5-min Rain = 0
KJTS 172020Z 01011G18KT 18/03 A3008 RMK A01 T01770031  RH  038%=      5-min Rain = 0
KJTS 172025Z 02009G17KT 18/03 A3008 RMK A01 T01770030  RH  038%=      5-min Rain = 0
KJTS 172030Z 02011G18KT 18/03 A3008 RMK A01 T01750030  RH  038%=      5-min Rain = 0
KJTS 172035Z 01011G16KT 18/03 A3008 RMK A01 T01770030  RH  038%=      5-min Rain = 0
KJTS 172040Z 00010G19KT 18/03 A3007 RMK A01 T01760031  RH  038%=      5-min Rain = 0
KJTS 172045Z 01010G15KT 18/03 A3007 RMK A01 T01760030  RH  038%=      5-min Rain = 0
KJTS 172050Z 01010G15KT 18/03 A3007 RMK A01 T01760029  RH  038%=      5-min Rain = 0
KJTS 172055Z 02010G16KT 18/03 A3007 RMK A01 T01780030  RH  038%=      5-min Rain = 0
KJTS 172100Z 00011KT 18/03 A3007 RMK A01 T01770030  RH  038%=      5-min Rain = 0
KJTS 172105Z 00009KT 18/03 A3007 RMK A01 T01770029  RH  038%=      5-min Rain = 0
KJTS 172110Z 36011KT 18/03 A3007 RMK A01 T01770029  RH  038%=      5-min Rain = 0
KJTS 172115Z 01008KT 18/03 A3007 RMK A01 T01770030  RH  038%=      5-min Rain = 0
KJTS 172120Z 02009KT 18/03 A3007 RMK A01 T01760029  RH  038%=      5-min Rain = 0
KJTS 172125Z 01007KT 18/03 A3006 RMK A01 T01770030  RH  038%=      5-min Rain = 0
KJTS 172130Z 03006KT 18/03 A3006 RMK A01 T01760029  RH  038%=      5-min Rain = 0
KJTS 172135Z 36007KT 18/03 A3006 RMK A01 T01800029  RH  037%=      5-min Rain = 0
KJTS 172140Z 00008KT 18/03 A3006 RMK A01 T01790029  RH  037%=      5-min Rain = 0
KJTS 172145Z 01007KT 18/03 A3006 RMK A01 T01790028  RH  037%=      5-min Rain = 0
KJTS 172150Z 36005G10KT 18/03 A3006 RMK A01 T01770028  RH  037%=      5-min Rain = 0
KJTS 172155Z 03007KT 18/03 A3006 RMK A01 T01780027  RH  037%=      5-min Rain = 0
KJTS 172200Z 02007KT 18/03 A3006 RMK A01 T01760027  RH  037%=      5-min Rain = 0
KJTS 172205Z 00005KT 18/03 A3006 RMK A01 T01760028  RH  038%=      5-min Rain = 0
KJTS 172210Z 36007KT 18/03 A3006 RMK A01 T01780029  RH  037%=      5-min Rain = 0
KJTS 172215Z 01005KT 18/03 A3006 RMK A01 T01780028  RH  037%=      5-min Rain = 0
KJTS 172220Z 36006KT 18/03 A3006 RMK A01 T01770028  RH  037%=      5-min Rain = 0
KJTS 172225Z 02006KT 18/03 A3006 RMK A01 T01770027  RH  037%=      5-min Rain = 0
KJTS 172230Z 01006KT 18/03 A3006 RMK A01 T01760027  RH  037%=      5-min Rain = 0
KJTS 172235Z 02005KT 18/03 A3006 RMK A01 T01760028  RH  038%=      5-min Rain = 0
KJTS 172240Z 02006KT 18/03 A3006 RMK A01 T01760028  RH  038%=      5-min Rain = 0
KJTS 172245Z 02005KT 17/03 A3006 RMK A01 T01740026  RH  038%=      5-min Rain = 0
KJTS 172250Z 35005KT 17/03 A3006 RMK A01 T01730026  RH  038%=      5-min Rain = 0
KJTS 172255Z 00004KT 17/03 A3006 RMK A01 T01730026  RH  038%=      5-min Rain = 0
KJTS 172300Z 01005KT 17/03 A3006 RMK A01 T01720025  RH  038%=      5-min Rain = 0
KJTS 172305Z 01004KT 17/03 A3006 RMK A01 T01700027  RH  039%=      5-min Rain = 0
KJTS 172310Z 01004KT 17/03 A3006 RMK A01 T01680027  RH  039%=      5-min Rain = 0
KJTS 172315Z 01004KT 17/03 A3006 RMK A01 T01670028  RH  040%=      5-min Rain = 0
KJTS 172320Z 02004KT 16/03 A3006 RMK A01 T01640027  RH  041%=      5-min Rain = 0
KJTS 172325Z 02004KT 16/03 A3006 RMK A01 T01610027  RH  041%=      5-min Rain = 0
KJTS 172330Z 02004KT 16/03 A3006 RMK A01 T01560027  RH  043%=      5-min Rain = 0
KJTS 172335Z 02005KT 15/03 A3006 RMK A01 T01510026  RH  044%=      5-min Rain = 0
KJTS 172340Z 02004KT 15/03 A3006 RMK A01 T01490026  RH  044%=      5-min Rain = 0
KJTS 172345Z 02003KT 15/03 A3007 RMK A01 T01470025  RH  045%=      5-min Rain = 0
KJTS 172350Z 02003KT 14/03 A3007 RMK A01 T01440026  RH  046%=      5-min Rain = 0
KJTS 172355Z 02004KT 14/03 A3007 RMK A01 T01410026  RH  047%=      5-min Rain = 0
KJTS 180000Z 02005KT 14/03 A3007 RMK A01 T01410027  RH  047%=      5-min Rain = 0
KJTS 180005Z 02004KT 14/03 A3007 RMK A01 T01400026  RH  047%=      5-min Rain = 0
KJTS 180010Z 02005KT 14/03 A3007 RMK A01 T01390025  RH  047%=      5-min Rain = 0
KJTS 180015Z 01005KT 14/02 A3007 RMK A01 T01360024  RH  048%=      5-min Rain = 0
KJTS 180020Z 02005KT 14/02 A3007 RMK A01 T01370024  RH  047%=      5-min Rain = 0
KJTS 180025Z 02004KT 14/02 A3007 RMK A01 T01380022  RH  046%=      5-min Rain = 0
KJTS 180030Z 02004KT 14/02 A3007 RMK A01 T01380022  RH  046%=      5-min Rain = 0
KJTS 180035Z 02004KT 14/02 A3008 RMK A01 T01370022  RH  046%=      5-min Rain = 0
KJTS 180040Z 01005KT 14/02 A3008 RMK A01 T01350022  RH  047%=      5-min Rain = 0
KJTS 180045Z 01005KT 13/02 A3008 RMK A01 T01330022  RH  048%=      5-min Rain = 0
KJTS 180050Z 02005KT 13/02 A3008 RMK A01 T01310022  RH  048%=      5-min Rain = 0
KJTS 180055Z 02005KT 13/02 A3008 RMK A01 T01320021  RH  048%=      5-min Rain = 0
KJTS 180100Z 01004KT 13/02 A3008 RMK A01 T01310021  RH  048%=      5-min Rain = 0
KJTS 180105Z 01003KT 13/02 A3008 RMK A01 T01290020  RH  048%=      5-min Rain = 0
KJTS 180110Z 01003KT 13/02 A3008 RMK A01 T01270020  RH  049%=      5-min Rain = 0
KJTS 180115Z 01004KT 13/02 A3008 RMK A01 T01270019  RH  049%=      5-min Rain = 0
KJTS 180120Z 01005KT 13/02 A3008 RMK A01 T01270019  RH  048%=      5-min Rain = 0
KJTS 180125Z 01005KT 13/02 A3008 RMK A01 T01260018  RH  049%=      5-min Rain = 0
KJTS 180130Z 01005KT 12/02 A3008 RMK A01 T01220019  RH  050%=      5-min Rain = 0
KJTS 180135Z 01005KT 12/02 A3009 RMK A01 T01210019  RH  051%=      5-min Rain = 0
KJTS 180140Z 01005KT 12/02 A3009 RMK A01 T01200019  RH  051%=      5-min Rain = 0
KJTS 180145Z 01005KT 12/02 A3009 RMK A01 T01210019  RH  050%=      5-min Rain = 0
KJTS 180150Z 01005KT 12/02 A3009 RMK A01 T01210019  RH  050%=      5-min Rain = 0
KJTS 180155Z 01005KT 12/02 A3009 RMK A01 T01200019  RH  051%=      5-min Rain = 0
KJTS 180200Z 00006KT 12/02 A3009 RMK A01 T01160019  RH  052%=      5-min Rain = 0
KJTS 180205Z 00007KT 11/02 A3009 RMK A01 T01120020  RH  054%=      5-min Rain = 0
KJTS 180210Z 00007KT 11/02 A3009 RMK A01 T01100021  RH  055%=      5-min Rain = 0
KJTS 180215Z 01007KT 11/02 A3008 RMK A01 T01090022  RH  056%=      5-min Rain = 0
KJTS 180220Z 00007KT 11/02 A3009 RMK A01 T01090022  RH  056%=      5-min Rain = 0
KJTS 180225Z 00006KT 11/02 A3009 RMK A01 T01050022  RH  057%=      5-min Rain = 0
KJTS 180230Z 00006KT 11/02 A3009 RMK A01 T01060022  RH  057%=      5-min Rain = 0
KJTS 180235Z 00006KT 11/02 A3009 RMK A01 T01070021  RH  056%=      5-min Rain = 0
KJTS 180240Z 00006KT 11/02 A3009 RMK A01 T01070020  RH  056%=      5-min Rain = 0
KJTS 180245Z 00006KT 11/02 A301 RMK A01 T01060019  RH  056%=      5-min Rain = 0
KJTS 180250Z 00006KT 11/02 A301 RMK A01 T01060019  RH  056%=      5-min Rain = 0
KJTS 180255Z 00006KT 11/02 A301 RMK A01 T01060019  RH  055%=      5-min Rain = 0
KJTS 180300Z 00005KT 11/02 A301 RMK A01 T01050018  RH  056%=      5-min Rain = 0
KJTS 180305Z 00004KT 11/02 A301 RMK A01 T01060018  RH  055%=      5-min Rain = 0
KJTS 180310Z 36003KT 10/02 A3011 RMK A01 T01020018  RH  057%=      5-min Rain = 0
KJTS 180315Z 00001KT 09/02 A301 RMK A01 T00890019  RH  062%=      5-min Rain = 0
KJTS 180320Z 18002KT 08/02 A301 RMK A01 T00770018  RH  067%=      5-min Rain = 0
KJTS 180325Z 18003KT 07/02 A301 RMK A01 T00740017  RH  068%=      5-min Rain = 0
KJTS 180330Z 20003KT 07/02 A301 RMK A01 T00700016  RH  069%=      5-min Rain = 0
KJTS 180335Z 22004KT 07/02 A301 RMK A01 T00690016  RH  070%=      5-min Rain = 0
KJTS 180340Z 23004KT 07/02 A301 RMK A01 T00670015  RH  070%=      5-min Rain = 0
KJTS 180345Z 22005KT 07/02 A301 RMK A01 T00660015  RH  071%=      5-min Rain = 0
KJTS 180350Z 20004KT 07/02 A301 RMK A01 T00650015  RH  071%=      5-min Rain = 0
KJTS 180355Z 20005KT 06/02 A301 RMK A01 T00640015  RH  072%=      5-min Rain = 0
KJTS 180400Z 20004KT 06/01 A301 RMK A01 T00640014  RH  071%=      5-min Rain = 0
KJTS 180405Z 21004KT 06/02 A3009 RMK A01 T00640015  RH  072%=      5-min Rain = 0
KJTS 180410Z 21004KT 07/02 A3009 RMK A01 T00660015  RH  071%=      5-min Rain = 0
KJTS 180415Z 22004KT 07/02 A3009 RMK A01 T00680016  RH  070%=      5-min Rain = 0
KJTS 180420Z 22003KT 07/02 A3009 RMK A01 T00710016  RH  069%=      5-min Rain = 0
KJTS 180425Z 21003KT 07/01 A3009 RMK A01 T00690014  RH  069%=      5-min Rain = 0
KJTS 180430Z 23003KT 07/01 A3009 RMK A01 T00650014  RH  071%=      5-min Rain = 0
KJTS 180435Z 25003KT 06/01 A3008 RMK A01 T00610013  RH  072%=      5-min Rain = 0
KJTS 180440Z 27003KT 06/02 A3008 RMK A01 T00630016  RH  073%=      5-min Rain = 0
KJTS 180445Z 27003KT 07/02 A3008 RMK A01 T00700017  RH  070%=      5-min Rain = 0
KJTS 180450Z 28003KT 07/02 A3009 RMK A01 T00650015  RH  072%=      5-min Rain = 0
KJTS 180455Z 27003KT 06/02 A3008 RMK A01 T00610015  RH  073%=      5-min Rain = 0
KJTS 180500Z 27002KT 06/02 A3008 RMK A01 T00610015  RH  073%=      5-min Rain = 0
KJTS 180505Z 26002KT 06/01 A3008 RMK A01 T00550012  RH  075%=      5-min Rain = 0
KJTS 180510Z 26003KT 06/02 A3008 RMK A01 T00560015  RH  076%=      5-min Rain = 0
KJTS 180515Z 25002KT 06/01 A3008 RMK A01 T00570014  RH  075%=      5-min Rain = 0
KJTS 180520Z 28002KT 05/01 A3008 RMK A01 T00540012  RH  075%=      5-min Rain = 0
KJTS 180525Z 29004KT 06/02 A3008 RMK A01 T00580016  RH  076%=      5-min Rain = 0
KJTS 180530Z 29004KT 06/01 A3008 RMK A01 T00550014  RH  076%=      5-min Rain = 0
KJTS 180535Z 29003KT 05/02 A3008 RMK A01 T00510015  RH  079%=      5-min Rain = 0
KJTS 180540Z 28003KT 05/02 A3007 RMK A01 T00470015  RH  080%=      5-min Rain = 0
KJTS 180545Z 29004KT 05/02 A3007 RMK A01 T00480017  RH  081%=      5-min Rain = 0
KJTS 180550Z 29005KT 05/02 A3007 RMK A01 T00470017  RH  082%=      5-min Rain = 0
KJTS 180555Z 29005KT 05/02 A3007 RMK A01 T00480016  RH  081%=      5-min Rain = 0

Page generated in 0.0092 seconds.